Terminal Aerodrome Forecast
Issued by NWS

Home | Current Version | Previous Version | Text Only | Print | Product List | Glossary On
Versions: 1 2 3 4 5 6 7 8 9 10 11 12 13 14 15
000
FTUS45 KGGW 270500
TAFSDY
TAF
KSDY 270522Z 2706/2806 29008KT P6SM -RA OVC035
     FM270800 32008KT P6SM -RA SCT010 OVC025
     FM271200 VRB05KT P6SM SCT012 BKN023
     FM271800 33007KT P6SM SCT045
     FM280000 VRB04KT P6SM FEW250
      AMD LTD TO CLD VIS AND WIND=

USA.gov is the U.S. government's official web portal to all federal, state and local government web resources and services.